sensor_id;sensor_type;location;lat;lon;timestamp;P1;durP1;ratioP1;P2;durP2;ratioP2
28547;SDS011;68292;49.600;8.746;2023-04-03T00:01:33;2.03;;;1.63;;
28547;SDS011;68292;49.600;8.746;2023-04-03T00:04:03;1.77;;;1.67;;
28547;SDS011;68292;49.600;8.746;2023-04-03T00:06:33;1.83;;;1.63;;
28547;SDS011;68292;49.600;8.746;2023-04-03T00:09:02;2.93;;;1.80;;
28547;SDS011;68292;49.600;8.746;2023-04-03T00:11:31;2.80;;;2.07;;
28547;SDS011;68292;49.600;8.746;2023-04-03T00:14:00;2.37;;;2.17;;
28547;SDS011;68292;49.600;8.746;2023-04-03T00:16:29;1.70;;;1.60;;
28547;SDS011;68292;49.600;8.746;2023-04-03T00:18:57;3.97;;;1.90;;
28547;SDS011;68292;49.600;8.746;2023-04-03T00:21:28;4.77;;;2.00;;
28547;SDS011;68292;49.600;8.746;2023-04-03T00:23:57;2.97;;;2.07;;
28547;SDS011;68292;49.600;8.746;2023-04-03T00:26:26;2.33;;;1.80;;
28547;SDS011;68292;49.600;8.746;2023-04-03T00:28:55;3.30;;;2.03;;
28547;SDS011;68292;49.600;8.746;2023-04-03T00:31:23;2.53;;;1.80;;
28547;SDS011;68292;49.600;8.746;2023-04-03T00:33:52;1.57;;;1.47;;
28547;SDS011;68292;49.600;8.746;2023-04-03T00:36:22;2.10;;;1.90;;
28547;SDS011;68292;49.600;8.746;2023-04-03T00:38:52;2.10;;;1.87;;
28547;SDS011;68292;49.600;8.746;2023-04-03T00:41:21;1.90;;;1.80;;
28547;SDS011;68292;49.600;8.746;2023-04-03T00:43:50;2.20;;;2.00;;
28547;SDS011;68292;49.600;8.746;2023-04-03T00:46:19;3.33;;;2.00;;
28547;SDS011;68292;49.600;8.746;2023-04-03T00:48:48;3.10;;;2.00;;
28547;SDS011;68292;49.600;8.746;2023-04-03T00:51:18;2.00;;;1.90;;
28547;SDS011;68292;49.600;8.746;2023-04-03T00:53:54;2.83;;;2.00;;
28547;SDS011;68292;49.600;8.746;2023-04-03T00:56:27;2.33;;;1.90;;
28547;SDS011;68292;49.600;8.746;2023-04-03T00:58:59;2.27;;;2.03;;
28547;SDS011;68292;49.600;8.746;2023-04-03T01:01:30;3.30;;;2.00;;
28547;SDS011;68292;49.600;8.746;2023-04-03T01:04:00;2.97;;;2.30;;
28547;SDS011;68292;49.600;8.746;2023-04-03T01:06:30;2.37;;;1.90;;
28547;SDS011;68292;49.600;8.746;2023-04-03T01:09:08;2.17;;;1.97;;
28547;SDS011;68292;49.600;8.746;2023-04-03T01:11:36;2.73;;;2.47;;
28547;SDS011;68292;49.600;8.746;2023-04-03T01:14:05;2.47;;;2.20;;
28547;SDS011;68292;49.600;8.746;2023-04-03T01:16:34;3.40;;;2.10;;
28547;SDS011;68292;49.600;8.746;2023-04-03T01:19:03;3.17;;;2.50;;
28547;SDS011;68292;49.600;8.746;2023-04-03T01:21:44;3.13;;;2.50;;
28547;SDS011;68292;49.600;8.746;2023-04-03T01:24:34;2.27;;;2.00;;
28547;SDS011;68292;49.600;8.746;2023-04-03T01:27:09;2.47;;;2.27;;
28547;SDS011;68292;49.600;8.746;2023-04-03T01:29:39;2.40;;;2.20;;
28547;SDS011;68292;49.600;8.746;2023-04-03T01:32:11;2.40;;;2.20;;
28547;SDS011;68292;49.600;8.746;2023-04-03T01:34:41;2.23;;;2.03;;
28547;SDS011;68292;49.600;8.746;2023-04-03T01:37:10;3.03;;;2.37;;
28547;SDS011;68292;49.600;8.746;2023-04-03T01:39:39;5.10;;;2.50;;
28547;SDS011;68292;49.600;8.746;2023-04-03T01:42:07;3.47;;;2.30;;
28547;SDS011;68292;49.600;8.746;2023-04-03T01:44:58;3.67;;;2.30;;
28547;SDS011;68292;49.600;8.746;2023-04-03T01:47:28;2.63;;;2.43;;
28547;SDS011;68292;49.600;8.746;2023-04-03T01:49:57;2.53;;;2.33;;
28547;SDS011;68292;49.600;8.746;2023-04-03T01:52:29;2.37;;;2.10;;
28547;SDS011;68292;49.600;8.746;2023-04-03T01:54:58;2.53;;;2.33;;
28547;SDS011;68292;49.600;8.746;2023-04-03T01:57:27;2.53;;;2.33;;
28547;SDS011;68292;49.600;8.746;2023-04-03T01:59:56;2.20;;;2.10;;
28547;SDS011;68292;49.600;8.746;2023-04-03T02:02:24;2.20;;;2.00;;
28547;SDS011;68292;49.600;8.746;2023-04-03T02:04:54;3.87;;;2.43;;
28547;SDS011;68292;49.600;8.746;2023-04-03T02:07:23;4.13;;;2.80;;
28547;SDS011;68292;49.600;8.746;2023-04-03T02:09:52;2.57;;;2.30;;
28547;SDS011;68292;49.600;8.746;2023-04-03T02:12:21;3.80;;;2.63;;
28547;SDS011;68292;49.600;8.746;2023-04-03T02:14:49;2.60;;;2.40;;
28547;SDS011;68292;49.600;8.746;2023-04-03T02:17:19;2.53;;;2.33;;
28547;SDS011;68292;49.600;8.746;2023-04-03T02:19:47;2.50;;;2.30;;
28547;SDS011;68292;49.600;8.746;2023-04-03T02:22:18;2.87;;;2.50;;
28547;SDS011;68292;49.600;8.746;2023-04-03T02:24:46;2.97;;;2.20;;
28547;SDS011;68292;49.600;8.746;2023-04-03T02:27:15;2.83;;;2.53;;
28547;SDS011;68292;49.600;8.746;2023-04-03T02:29:44;2.87;;;2.50;;
28547;SDS011;68292;49.600;8.746;2023-04-03T02:32:13;2.47;;;2.27;;
28547;SDS011;68292;49.600;8.746;2023-04-03T02:34:42;3.03;;;2.57;;
28547;SDS011;68292;49.600;8.746;2023-04-03T02:37:12;3.87;;;2.73;;
28547;SDS011;68292;49.600;8.746;2023-04-03T02:39:45;2.67;;;2.33;;
28547;SDS011;68292;49.600;8.746;2023-04-03T02:42:14;2.43;;;2.23;;
28547;SDS011;68292;49.600;8.746;2023-04-03T02:44:42;3.00;;;2.30;;
28547;SDS011;68292;49.600;8.746;2023-04-03T02:47:11;2.63;;;2.43;;
28547;SDS011;68292;49.600;8.746;2023-04-03T02:49:40;2.70;;;2.40;;
28547;SDS011;68292;49.600;8.746;2023-04-03T02:52:10;2.37;;;1.90;;
28547;SDS011;68292;49.600;8.746;2023-04-03T02:54:39;2.90;;;2.40;;
28547;SDS011;68292;49.600;8.746;2023-04-03T02:57:10;2.50;;;2.30;;
28547;SDS011;68292;49.600;8.746;2023-04-03T02:59:39;2.87;;;2.37;;
28547;SDS011;68292;49.600;8.746;2023-04-03T03:02:10;2.40;;;2.20;;
28547;SDS011;68292;49.600;8.746;2023-04-03T03:04:39;3.70;;;2.40;;
28547;SDS011;68292;49.600;8.746;2023-04-03T03:07:07;3.40;;;2.30;;
28547;SDS011;68292;49.600;8.746;2023-04-03T03:09:36;2.97;;;2.30;;
28547;SDS011;68292;49.600;8.746;2023-04-03T03:12:05;2.63;;;2.23;;
28547;SDS011;68292;49.600;8.746;2023-04-03T03:14:35;2.73;;;2.40;;
28547;SDS011;68292;49.600;8.746;2023-04-03T03:17:04;2.33;;;2.13;;
28547;SDS011;68292;49.600;8.746;2023-04-03T03:19:33;5.13;;;3.03;;
28547;SDS011;68292;49.600;8.746;2023-04-03T03:22:01;4.03;;;2.53;;
28547;SDS011;68292;49.600;8.746;2023-04-03T03:24:30;2.50;;;2.30;;
28547;SDS011;68292;49.600;8.746;2023-04-03T03:26:58;2.40;;;2.20;;
28547;SDS011;68292;49.600;8.746;2023-04-03T03:29:27;2.70;;;2.47;;
28547;SDS011;68292;49.600;8.746;2023-04-03T03:31:57;3.93;;;2.53;;
28547;SDS011;68292;49.600;8.746;2023-04-03T03:34:26;2.33;;;2.10;;
28547;SDS011;68292;49.600;8.746;2023-04-03T03:36:55;3.20;;;2.33;;
28547;SDS011;68292;49.600;8.746;2023-04-03T03:39:24;2.20;;;2.00;;
28547;SDS011;68292;49.600;8.746;2023-04-03T03:41:53;2.07;;;1.87;;
28547;SDS011;68292;49.600;8.746;2023-04-03T03:44:22;1.93;;;1.80;;
28547;SDS011;68292;49.600;8.746;2023-04-03T03:46:52;2.60;;;1.93;;
28547;SDS011;68292;49.600;8.746;2023-04-03T03:49:22;2.30;;;2.10;;
28547;SDS011;68292;49.600;8.746;2023-04-03T03:51:51;3.27;;;2.47;;
28547;SDS011;68292;49.600;8.746;2023-04-03T03:54:20;3.20;;;2.40;;
28547;SDS011;68292;49.600;8.746;2023-04-03T03:56:50;2.53;;;2.13;;
28547;SDS011;68292;49.600;8.746;2023-04-03T03:59:18;2.93;;;2.20;;
28547;SDS011;68292;49.600;8.746;2023-04-03T04:01:47;3.93;;;2.10;;
28547;SDS011;68292;49.600;8.746;2023-04-03T04:04:16;2.73;;;2.30;;
28547;SDS011;68292;49.600;8.746;2023-04-03T04:06:47;2.90;;;2.37;;
28547;SDS011;68292;49.600;8.746;2023-04-03T04:09:16;2.83;;;2.10;;
28547;SDS011;68292;49.600;8.746;2023-04-03T04:11:45;2.90;;;2.33;;
28547;SDS011;68292;49.600;8.746;2023-04-03T04:14:15;2.37;;;2.17;;
28547;SDS011;68292;49.600;8.746;2023-04-03T04:16:44;3.13;;;2.23;;
28547;SDS011;68292;49.600;8.746;2023-04-03T04:19:18;4.27;;;2.17;;
28547;SDS011;68292;49.600;8.746;2023-04-03T04:21:49;2.73;;;2.33;;
28547;SDS011;68292;49.600;8.746;2023-04-03T04:24:18;2.57;;;2.37;;
28547;SDS011;68292;49.600;8.746;2023-04-03T04:26:54;3.00;;;2.33;;
28547;SDS011;68292;49.600;8.746;2023-04-03T04:29:24;2.47;;;2.27;;
28547;SDS011;68292;49.600;8.746;2023-04-03T04:31:52;2.53;;;2.33;;
28547;SDS011;68292;49.600;8.746;2023-04-03T04:34:22;4.03;;;3.13;;
28547;SDS011;68292;49.600;8.746;2023-04-03T04:36:52;3.33;;;3.03;;
28547;SDS011;68292;49.600;8.746;2023-04-03T04:39:21;2.87;;;2.57;;
28547;SDS011;68292;49.600;8.746;2023-04-03T04:41:51;5.03;;;3.00;;
28547;SDS011;68292;49.600;8.746;2023-04-03T04:44:21;3.27;;;2.97;;
28547;SDS011;68292;49.600;8.746;2023-04-03T04:46:49;4.97;;;3.10;;
28547;SDS011;68292;49.600;8.746;2023-04-03T04:49:19;3.33;;;2.73;;
28547;SDS011;68292;49.600;8.746;2023-04-03T04:51:48;2.97;;;2.67;;
28547;SDS011;68292;49.600;8.746;2023-04-03T04:54:24;3.00;;;2.70;;
28547;SDS011;68292;49.600;8.746;2023-04-03T04:56:53;3.20;;;2.60;;
28547;SDS011;68292;49.600;8.746;2023-04-03T04:59:22;4.53;;;2.73;;
28547;SDS011;68292;49.600;8.746;2023-04-03T05:01:53;4.13;;;2.60;;
28547;SDS011;68292;49.600;8.746;2023-04-03T05:04:22;4.13;;;2.60;;
28547;SDS011;68292;49.600;8.746;2023-04-03T05:06:56;3.87;;;2.50;;
28547;SDS011;68292;49.600;8.746;2023-04-03T05:09:31;2.63;;;2.43;;
28547;SDS011;68292;49.600;8.746;2023-04-03T05:12:00;2.70;;;2.50;;
28547;SDS011;68292;49.600;8.746;2023-04-03T05:14:36;3.03;;;2.67;;
28547;SDS011;68292;49.600;8.746;2023-04-03T05:17:07;2.83;;;2.63;;
28547;SDS011;68292;49.600;8.746;2023-04-03T05:19:39;3.90;;;2.70;;
28547;SDS011;68292;49.600;8.746;2023-04-03T05:22:09;2.93;;;2.63;;
28547;SDS011;68292;49.600;8.746;2023-04-03T05:24:40;3.23;;;2.60;;
28547;SDS011;68292;49.600;8.746;2023-04-03T05:27:08;2.67;;;2.47;;
28547;SDS011;68292;49.600;8.746;2023-04-03T05:29:41;3.43;;;2.50;;
28547;SDS011;68292;49.600;8.746;2023-04-03T05:32:15;2.80;;;2.53;;
28547;SDS011;68292;49.600;8.746;2023-04-03T05:34:47;2.70;;;2.50;;
28547;SDS011;68292;49.600;8.746;2023-04-03T05:37:18;3.53;;;3.00;;
28547;SDS011;68292;49.600;8.746;2023-04-03T05:39:51;3.10;;;2.80;;
28547;SDS011;68292;49.600;8.746;2023-04-03T05:42:20;2.60;;;2.40;;
28547;SDS011;68292;49.600;8.746;2023-04-03T05:44:49;3.20;;;2.63;;
28547;SDS011;68292;49.600;8.746;2023-04-03T05:47:18;2.97;;;2.70;;
28547;SDS011;68292;49.600;8.746;2023-04-03T05:49:47;2.73;;;2.47;;
28547;SDS011;68292;49.600;8.746;2023-04-03T05:52:19;2.70;;;2.33;;
28547;SDS011;68292;49.600;8.746;2023-04-03T05:54:52;3.90;;;3.03;;
28547;SDS011;68292;49.600;8.746;2023-04-03T05:57:25;3.03;;;2.83;;
28547;SDS011;68292;49.600;8.746;2023-04-03T05:59:54;3.30;;;2.60;;
28547;SDS011;68292;49.600;8.746;2023-04-03T06:02:24;2.80;;;2.60;;
28547;SDS011;68292;49.600;8.746;2023-04-03T06:04:53;4.10;;;3.13;;
28547;SDS011;68292;49.600;8.746;2023-04-03T06:07:23;3.20;;;2.90;;
28547;SDS011;68292;49.600;8.746;2023-04-03T06:09:56;4.27;;;3.67;;
28547;SDS011;68292;49.600;8.746;2023-04-03T06:12:25;5.97;;;3.17;;
28547;SDS011;68292;49.600;8.746;2023-04-03T06:14:56;5.13;;;4.00;;
28547;SDS011;68292;49.600;8.746;2023-04-03T06:17:25;3.47;;;3.17;;
28547;SDS011;68292;49.600;8.746;2023-04-03T06:19:54;3.47;;;3.17;;
28547;SDS011;68292;49.600;8.746;2023-04-03T06:22:25;4.53;;;3.50;;
28547;SDS011;68292;49.600;8.746;2023-04-03T06:24:57;4.47;;;4.07;;
28547;SDS011;68292;49.600;8.746;2023-04-03T06:27:26;5.10;;;3.47;;
28547;SDS011;68292;49.600;8.746;2023-04-03T06:29:55;4.10;;;3.73;;
28547;SDS011;68292;49.600;8.746;2023-04-03T06:32:27;4.57;;;3.93;;
28547;SDS011;68292;49.600;8.746;2023-04-03T06:34:56;4.30;;;3.40;;
28547;SDS011;68292;49.600;8.746;2023-04-03T06:37:25;4.30;;;3.77;;
28547;SDS011;68292;49.600;8.746;2023-04-03T06:39:55;3.80;;;3.40;;
28547;SDS011;68292;49.600;8.746;2023-04-03T06:42:27;4.10;;;3.70;;
28547;SDS011;68292;49.600;8.746;2023-04-03T06:45:13;4.80;;;3.43;;
28547;SDS011;68292;49.600;8.746;2023-04-03T06:47:42;10.10;;;3.53;;
28547;SDS011;68292;49.600;8.746;2023-04-03T06:50:12;3.67;;;3.37;;
28547;SDS011;68292;49.600;8.746;2023-04-03T06:52:41;4.20;;;3.80;;
28547;SDS011;68292;49.600;8.746;2023-04-03T06:55:12;4.63;;;3.73;;
28547;SDS011;68292;49.600;8.746;2023-04-03T06:57:40;6.43;;;3.80;;
28547;SDS011;68292;49.600;8.746;2023-04-03T07:00:10;5.27;;;3.27;;
28547;SDS011;68292;49.600;8.746;2023-04-03T07:02:40;3.37;;;2.93;;
28547;SDS011;68292;49.600;8.746;2023-04-03T07:05:09;2.93;;;2.30;;
28547;SDS011;68292;49.600;8.746;2023-04-03T07:07:38;5.73;;;2.80;;
28547;SDS011;68292;49.600;8.746;2023-04-03T07:10:08;2.33;;;2.13;;
28547;SDS011;68292;49.600;8.746;2023-04-03T07:12:39;2.30;;;2.10;;
28547;SDS011;68292;49.600;8.746;2023-04-03T07:15:08;2.67;;;2.20;;
28547;SDS011;68292;49.600;8.746;2023-04-03T07:17:38;3.30;;;1.93;;
28547;SDS011;68292;49.600;8.746;2023-04-03T07:20:08;2.90;;;1.90;;
28547;SDS011;68292;49.600;8.746;2023-04-03T07:22:37;2.50;;;2.17;;
28547;SDS011;68292;49.600;8.746;2023-04-03T07:25:06;2.23;;;2.03;;
28547;SDS011;68292;49.600;8.746;2023-04-03T07:27:40;4.00;;;2.60;;
28547;SDS011;68292;49.600;8.746;2023-04-03T07:30:09;6.83;;;2.70;;
28547;SDS011;68292;49.600;8.746;2023-04-03T07:32:40;3.93;;;1.93;;
28547;SDS011;68292;49.600;8.746;2023-04-03T07:35:10;4.07;;;2.17;;
28547;SDS011;68292;49.600;8.746;2023-04-03T07:37:39;3.43;;;2.00;;
28547;SDS011;68292;49.600;8.746;2023-04-03T07:40:08;1.90;;;1.70;;
28547;SDS011;68292;49.600;8.746;2023-04-03T07:42:40;2.93;;;1.80;;
28547;SDS011;68292;49.600;8.746;2023-04-03T07:45:10;2.40;;;1.93;;
28547;SDS011;68292;49.600;8.746;2023-04-03T07:47:38;3.37;;;2.23;;
28547;SDS011;68292;49.600;8.746;2023-04-03T07:50:08;3.23;;;2.07;;
28547;SDS011;68292;49.600;8.746;2023-04-03T07:52:36;2.70;;;1.90;;
28547;SDS011;68292;49.600;8.746;2023-04-03T07:55:05;2.27;;;1.90;;
28547;SDS011;68292;49.600;8.746;2023-04-03T07:57:35;3.37;;;2.00;;
28547;SDS011;68292;49.600;8.746;2023-04-03T08:00:06;2.77;;;1.80;;
28547;SDS011;68292;49.600;8.746;2023-04-03T08:02:40;1.83;;;1.73;;
28547;SDS011;68292;49.600;8.746;2023-04-03T08:05:09;3.57;;;1.80;;
28547;SDS011;68292;49.600;8.746;2023-04-03T08:07:38;1.93;;;1.80;;
28547;SDS011;68292;49.600;8.746;2023-04-03T08:10:07;2.83;;;1.80;;
28547;SDS011;68292;49.600;8.746;2023-04-03T08:12:36;2.27;;;2.07;;
28547;SDS011;68292;49.600;8.746;2023-04-03T08:15:07;2.27;;;1.50;;
28547;SDS011;68292;49.600;8.746;2023-04-03T08:17:37;1.70;;;1.60;;
28547;SDS011;68292;49.600;8.746;2023-04-03T08:20:06;2.87;;;1.87;;
28547;SDS011;68292;49.600;8.746;2023-04-03T08:22:37;2.20;;;1.57;;
28547;SDS011;68292;49.600;8.746;2023-04-03T08:25:07;2.80;;;1.80;;
28547;SDS011;68292;49.600;8.746;2023-04-03T08:27:36;3.87;;;2.13;;
28547;SDS011;68292;49.600;8.746;2023-04-03T08:30:07;1.90;;;1.40;;
28547;SDS011;68292;49.600;8.746;2023-04-03T08:32:37;2.10;;;1.83;;
28547;SDS011;68292;49.600;8.746;2023-04-03T08:35:08;3.27;;;2.00;;
28547;SDS011;68292;49.600;8.746;2023-04-03T08:37:38;2.27;;;1.60;;
28547;SDS011;68292;49.600;8.746;2023-04-03T08:40:10;2.37;;;1.73;;
28547;SDS011;68292;49.600;8.746;2023-04-03T08:42:45;1.57;;;1.47;;
28547;SDS011;68292;49.600;8.746;2023-04-03T08:45:44;1.63;;;1.47;;
28547;SDS011;68292;49.600;8.746;2023-04-03T08:48:19;3.37;;;1.53;;
28547;SDS011;68292;49.600;8.746;2023-04-03T08:50:50;1.43;;;1.33;;
28547;SDS011;68292;49.600;8.746;2023-04-03T08:53:23;3.27;;;1.43;;
28547;SDS011;68292;49.600;8.746;2023-04-03T08:55:58;1.63;;;1.50;;
28547;SDS011;68292;49.600;8.746;2023-04-03T08:58:33;2.50;;;1.70;;
28547;SDS011;68292;49.600;8.746;2023-04-03T09:01:16;1.90;;;1.60;;
28547;SDS011;68292;49.600;8.746;2023-04-03T09:03:48;2.50;;;1.40;;
28547;SDS011;68292;49.600;8.746;2023-04-03T09:06:18;4.10;;;2.30;;
28547;SDS011;68292;49.600;8.746;2023-04-03T09:08:50;2.33;;;1.53;;
28547;SDS011;68292;49.600;8.746;2023-04-03T09:11:28;2.57;;;1.63;;
28547;SDS011;68292;49.600;8.746;2023-04-03T09:14:15;3.23;;;1.57;;
28547;SDS011;68292;49.600;8.746;2023-04-03T09:16:52;1.57;;;1.23;;
28547;SDS011;68292;49.600;8.746;2023-04-03T09:19:28;1.60;;;1.50;;
28547;SDS011;68292;49.600;8.746;2023-04-03T09:22:12;1.77;;;1.50;;
28547;SDS011;68292;49.600;8.746;2023-04-03T09:24:45;2.57;;;1.40;;
28547;SDS011;68292;49.600;8.746;2023-04-03T09:27:20;1.87;;;1.40;;
28547;SDS011;68292;49.600;8.746;2023-04-03T09:29:49;2.80;;;1.73;;
28547;SDS011;68292;49.600;8.746;2023-04-03T09:32:25;2.03;;;1.60;;
28547;SDS011;68292;49.600;8.746;2023-04-03T09:34:57;1.53;;;1.43;;
28547;SDS011;68292;49.600;8.746;2023-04-03T09:37:46;2.77;;;1.63;;
28547;SDS011;68292;49.600;8.746;2023-04-03T09:40:33;2.60;;;1.40;;
28547;SDS011;68292;49.600;8.746;2023-04-03T09:43:19;1.80;;;1.50;;
28547;SDS011;68292;49.600;8.746;2023-04-03T09:45:51;2.27;;;1.63;;
28547;SDS011;68292;49.600;8.746;2023-04-03T09:48:22;2.20;;;1.60;;
28547;SDS011;68292;49.600;8.746;2023-04-03T09:50:53;1.50;;;1.40;;
28547;SDS011;68292;49.600;8.746;2023-04-03T09:53:33;1.33;;;1.23;;
28547;SDS011;68292;49.600;8.746;2023-04-03T09:56:05;2.70;;;1.20;;
28547;SDS011;68292;49.600;8.746;2023-04-03T09:58:49;1.50;;;1.40;;
28547;SDS011;68292;49.600;8.746;2023-04-03T10:01:22;2.20;;;1.50;;
28547;SDS011;68292;49.600;8.746;2023-04-03T10:04:07;2.50;;;1.50;;
28547;SDS011;68292;49.600;8.746;2023-04-03T10:06:39;1.50;;;1.40;;
28547;SDS011;68292;49.600;8.746;2023-04-03T10:09:16;1.80;;;1.60;;
28547;SDS011;68292;49.600;8.746;2023-04-03T10:12:01;2.00;;;1.80;;
28547;SDS011;68292;49.600;8.746;2023-04-03T10:14:33;3.47;;;1.77;;
28547;SDS011;68292;49.600;8.746;2023-04-03T10:17:05;4.47;;;1.63;;
28547;SDS011;68292;49.600;8.746;2023-04-03T10:19:48;2.33;;;1.67;;
28547;SDS011;68292;49.600;8.746;2023-04-03T10:22:25;1.53;;;1.27;;
28547;SDS011;68292;49.600;8.746;2023-04-03T10:25:07;2.07;;;1.70;;
28547;SDS011;68292;49.600;8.746;2023-04-03T10:27:46;3.43;;;1.67;;
28547;SDS011;68292;49.600;8.746;2023-04-03T10:30:28;1.97;;;1.70;;
28547;SDS011;68292;49.600;8.746;2023-04-03T10:33:20;1.67;;;1.57;;
28547;SDS011;68292;49.600;8.746;2023-04-03T10:36:12;2.93;;;1.70;;
28547;SDS011;68292;49.600;8.746;2023-04-03T10:38:56;1.47;;;1.37;;
28547;SDS011;68292;49.600;8.746;2023-04-03T10:41:33;1.80;;;1.70;;
28547;SDS011;68292;49.600;8.746;2023-04-03T10:44:16;2.20;;;2.00;;
28547;SDS011;68292;49.600;8.746;2023-04-03T10:46:59;1.70;;;1.60;;
28547;SDS011;68292;49.600;8.746;2023-04-03T10:49:39;1.67;;;1.50;;
28547;SDS011;68292;49.600;8.746;2023-04-03T10:52:28;2.70;;;1.80;;
28547;SDS011;68292;49.600;8.746;2023-04-03T10:55:09;1.57;;;1.30;;
28547;SDS011;68292;49.600;8.746;2023-04-03T10:57:52;2.10;;;1.90;;
28547;SDS011;68292;49.600;8.746;2023-04-03T11:00:26;2.17;;;1.70;;
28547;SDS011;68292;49.600;8.746;2023-04-03T11:03:05;1.60;;;1.50;;
28547;SDS011;68292;49.600;8.746;2023-04-03T11:05:40;1.70;;;1.60;;
28547;SDS011;68292;49.600;8.746;2023-04-03T11:08:15;3.13;;;1.90;;
28547;SDS011;68292;49.600;8.746;2023-04-03T11:10:55;2.50;;;2.07;;
28547;SDS011;68292;49.600;8.746;2023-04-03T11:13:30;2.70;;;1.70;;
28547;SDS011;68292;49.600;8.746;2023-04-03T11:16:05;2.33;;;1.80;;
28547;SDS011;68292;49.600;8.746;2023-04-03T11:18:35;2.73;;;1.73;;
28547;SDS011;68292;49.600;8.746;2023-04-03T11:21:12;3.10;;;1.57;;
28547;SDS011;68292;49.600;8.746;2023-04-03T11:23:49;2.37;;;1.63;;
28547;SDS011;68292;49.600;8.746;2023-04-03T11:26:22;1.57;;;1.47;;
28547;SDS011;68292;49.600;8.746;2023-04-03T11:28:56;1.97;;;1.80;;
28547;SDS011;68292;49.600;8.746;2023-04-03T11:31:47;2.37;;;1.73;;
28547;SDS011;68292;49.600;8.746;2023-04-03T11:34:33;3.63;;;1.43;;
28547;SDS011;68292;49.600;8.746;2023-04-03T11:37:11;3.17;;;2.00;;
28547;SDS011;68292;49.600;8.746;2023-04-03T11:39:48;2.07;;;1.70;;
28547;SDS011;68292;49.600;8.746;2023-04-03T11:42:25;1.93;;;1.70;;
28547;SDS011;68292;49.600;8.746;2023-04-03T11:45:16;1.97;;;1.80;;
28547;SDS011;68292;49.600;8.746;2023-04-03T11:48:00;1.80;;;1.60;;
28547;SDS011;68292;49.600;8.746;2023-04-03T11:50:49;2.27;;;1.60;;
28547;SDS011;68292;49.600;8.746;2023-04-03T11:59:15;1.93;;;1.63;;
28547;SDS011;68292;49.600;8.746;2023-04-03T12:01:51;1.80;;;1.60;;
28547;SDS011;68292;49.600;8.746;2023-04-03T12:04:22;2.13;;;1.53;;
28547;SDS011;68292;49.600;8.746;2023-04-03T12:09:54;2.77;;;1.70;;
28547;SDS011;68292;49.600;8.746;2023-04-03T12:12:29;1.70;;;1.60;;
28547;SDS011;68292;49.600;8.746;2023-04-03T12:24:46;3.67;;;1.67;;
28547;SDS011;68292;49.600;8.746;2023-04-03T12:27:23;4.47;;;2.10;;
28547;SDS011;68292;49.600;8.746;2023-04-03T12:30:07;1.60;;;1.40;;
28547;SDS011;68292;49.600;8.746;2023-04-03T12:32:58;2.77;;;1.77;;
28547;SDS011;68292;49.600;8.746;2023-04-03T12:35:43;3.33;;;1.80;;
28547;SDS011;68292;49.600;8.746;2023-04-03T12:41:30;3.13;;;1.70;;
28547;SDS011;68292;49.600;8.746;2023-04-03T12:44:20;3.67;;;1.87;;
28547;SDS011;68292;49.600;8.746;2023-04-03T12:50:03;1.63;;;1.53;;
28547;SDS011;68292;49.600;8.746;2023-04-03T12:52:47;1.90;;;1.70;;
28547;SDS011;68292;49.600;8.746;2023-04-03T12:55:22;2.03;;;1.80;;
28547;SDS011;68292;49.600;8.746;2023-04-03T12:57:51;3.40;;;1.90;;
28547;SDS011;68292;49.600;8.746;2023-04-03T13:00:25;4.60;;;1.90;;
28547;SDS011;68292;49.600;8.746;2023-04-03T13:03:00;3.87;;;2.03;;
28547;SDS011;68292;49.600;8.746;2023-04-03T13:05:31;2.70;;;1.60;;
28547;SDS011;68292;49.600;8.746;2023-04-03T13:08:04;2.53;;;2.00;;
28547;SDS011;68292;49.600;8.746;2023-04-03T13:10:43;1.70;;;1.60;;
28547;SDS011;68292;49.600;8.746;2023-04-03T13:13:20;1.90;;;1.60;;
28547;SDS011;68292;49.600;8.746;2023-04-03T13:15:52;2.20;;;1.90;;
28547;SDS011;68292;49.600;8.746;2023-04-03T13:18:26;2.73;;;1.60;;
28547;SDS011;68292;49.600;8.746;2023-04-03T13:21:00;2.53;;;1.90;;
28547;SDS011;68292;49.600;8.746;2023-04-03T13:23:33;2.20;;;1.83;;
28547;SDS011;68292;49.600;8.746;2023-04-03T13:26:05;2.67;;;1.80;;
28547;SDS011;68292;49.600;8.746;2023-04-03T13:28:34;4.20;;;1.87;;
28547;SDS011;68292;49.600;8.746;2023-04-03T13:31:08;1.93;;;1.83;;
28547;SDS011;68292;49.600;8.746;2023-04-03T13:33:52;2.30;;;2.10;;
28547;SDS011;68292;49.600;8.746;2023-04-03T13:36:28;1.80;;;1.70;;
28547;SDS011;68292;49.600;8.746;2023-04-03T13:39:05;2.10;;;1.90;;
28547;SDS011;68292;49.600;8.746;2023-04-03T13:41:46;1.90;;;1.80;;
28547;SDS011;68292;49.600;8.746;2023-04-03T13:44:27;1.73;;;1.63;;
28547;SDS011;68292;49.600;8.746;2023-04-03T13:47:14;3.27;;;2.13;;
28547;SDS011;68292;49.600;8.746;2023-04-03T13:49:58;2.63;;;1.80;;
28547;SDS011;68292;49.600;8.746;2023-04-03T13:52:31;1.63;;;1.53;;
28547;SDS011;68292;49.600;8.746;2023-04-03T13:55:15;2.37;;;2.13;;
28547;SDS011;68292;49.600;8.746;2023-04-03T13:57:55;5.30;;;1.93;;
28547;SDS011;68292;49.600;8.746;2023-04-03T14:00:28;2.00;;;1.80;;
28547;SDS011;68292;49.600;8.746;2023-04-03T14:03:13;4.30;;;1.90;;
28547;SDS011;68292;49.600;8.746;2023-04-03T14:05:46;2.10;;;1.70;;
28547;SDS011;68292;49.600;8.746;2023-04-03T14:08:15;2.33;;;1.70;;
28547;SDS011;68292;49.600;8.746;2023-04-03T14:10:52;2.93;;;1.90;;
28547;SDS011;68292;49.600;8.746;2023-04-03T14:13:21;2.03;;;1.70;;
28547;SDS011;68292;49.600;8.746;2023-04-03T14:15:50;2.50;;;1.90;;
28547;SDS011;68292;49.600;8.746;2023-04-03T14:18:23;2.13;;;1.40;;
28547;SDS011;68292;49.600;8.746;2023-04-03T14:20:52;1.80;;;1.70;;
28547;SDS011;68292;49.600;8.746;2023-04-03T14:23:20;2.30;;;1.60;;
28547;SDS011;68292;49.600;8.746;2023-04-03T14:25:49;1.83;;;1.60;;
28547;SDS011;68292;49.600;8.746;2023-04-03T14:28:18;1.43;;;1.33;;
28547;SDS011;68292;49.600;8.746;2023-04-03T14:30:49;1.40;;;1.30;;
28547;SDS011;68292;49.600;8.746;2023-04-03T14:33:20;1.57;;;1.40;;
28547;SDS011;68292;49.600;8.746;2023-04-03T14:35:52;1.90;;;1.67;;
28547;SDS011;68292;49.600;8.746;2023-04-03T14:38:24;2.47;;;1.53;;
28547;SDS011;68292;49.600;8.746;2023-04-03T14:40:54;1.90;;;1.70;;
28547;SDS011;68292;49.600;8.746;2023-04-03T14:43:41;1.77;;;1.60;;
28547;SDS011;68292;49.600;8.746;2023-04-03T14:46:12;3.30;;;1.50;;
28547;SDS011;68292;49.600;8.746;2023-04-03T14:48:46;2.27;;;1.60;;
28547;SDS011;68292;49.600;8.746;2023-04-03T14:51:15;1.97;;;1.60;;
28547;SDS011;68292;49.600;8.746;2023-04-03T14:53:43;3.03;;;1.60;;
28547;SDS011;68292;49.600;8.746;2023-04-03T14:56:13;1.47;;;1.37;;
28547;SDS011;68292;49.600;8.746;2023-04-03T14:58:45;1.70;;;1.60;;
28547;SDS011;68292;49.600;8.746;2023-04-03T15:01:16;1.50;;;1.40;;
28547;SDS011;68292;49.600;8.746;2023-04-03T15:03:47;1.97;;;1.53;;
28547;SDS011;68292;49.600;8.746;2023-04-03T15:06:16;2.00;;;1.60;;
28547;SDS011;68292;49.600;8.746;2023-04-03T15:08:46;1.63;;;1.47;;
28547;SDS011;68292;49.600;8.746;2023-04-03T15:11:16;2.03;;;1.43;;
28547;SDS011;68292;49.600;8.746;2023-04-03T15:13:44;1.60;;;1.50;;
28547;SDS011;68292;49.600;8.746;2023-04-03T15:16:14;2.73;;;1.70;;
28547;SDS011;68292;49.600;8.746;2023-04-03T15:18:45;1.57;;;1.40;;
28547;SDS011;68292;49.600;8.746;2023-04-03T15:21:16;3.27;;;1.63;;
28547;SDS011;68292;49.600;8.746;2023-04-03T15:23:45;1.93;;;1.73;;
28547;SDS011;68292;49.600;8.746;2023-04-03T15:26:13;1.93;;;1.60;;
28547;SDS011;68292;49.600;8.746;2023-04-03T15:28:42;2.20;;;1.60;;
28547;SDS011;68292;49.600;8.746;2023-04-03T15:31:12;1.77;;;1.63;;
28547;SDS011;68292;49.600;8.746;2023-04-03T15:33:41;2.70;;;1.97;;
28547;SDS011;68292;49.600;8.746;2023-04-03T15:36:11;1.83;;;1.50;;
28547;SDS011;68292;49.600;8.746;2023-04-03T15:38:58;2.10;;;1.40;;
28547;SDS011;68292;49.600;8.746;2023-04-03T15:41:27;1.80;;;1.40;;
28547;SDS011;68292;49.600;8.746;2023-04-03T15:43:55;2.27;;;1.50;;
28547;SDS011;68292;49.600;8.746;2023-04-03T15:46:25;3.43;;;1.70;;